sensor_id;sensor_type;location;lat;lon;timestamp;P1;durP1;ratioP1;P2;durP2;ratioP2
51296;SDS011;37380;45.186;9.792;2024-03-07T00:00:10;24.48;;;16.70;;
51296;SDS011;37380;45.186;9.792;2024-03-07T00:02:42;19.23;;;16.95;;
51296;SDS011;37380;45.186;9.792;2024-03-07T00:05:15;17.13;;;15.38;;
51296;SDS011;37380;45.186;9.792;2024-03-07T00:07:43;19.80;;;16.20;;
51296;SDS011;37380;45.186;9.792;2024-03-07T00:10:11;21.15;;;15.98;;
51296;SDS011;37380;45.186;9.792;2024-03-07T00:12:39;25.27;;;18.17;;
51296;SDS011;37380;45.186;9.792;2024-03-07T00:15:08;19.77;;;17.63;;
51296;SDS011;37380;45.186;9.792;2024-03-07T00:17:36;22.25;;;16.48;;
51296;SDS011;37380;45.186;9.792;2024-03-07T00:20:03;21.13;;;16.98;;
51296;SDS011;37380;45.186;9.792;2024-03-07T00:22:35;27.27;;;18.73;;
51296;SDS011;37380;45.186;9.792;2024-03-07T00:25:02;22.83;;;18.35;;
51296;SDS011;37380;45.186;9.792;2024-03-07T00:27:33;23.33;;;15.93;;
51296;SDS011;37380;45.186;9.792;2024-03-07T00:30:00;16.35;;;14.80;;
51296;SDS011;37380;45.186;9.792;2024-03-07T00:32:28;19.65;;;17.63;;
51296;SDS011;37380;45.186;9.792;2024-03-07T00:34:57;21.35;;;17.15;;
51296;SDS011;37380;45.186;9.792;2024-03-07T00:37:24;18.38;;;16.58;;
51296;SDS011;37380;45.186;9.792;2024-03-07T00:39:54;36.22;;;16.40;;
51296;SDS011;37380;45.186;9.792;2024-03-07T00:42:21;23.83;;;18.35;;
51296;SDS011;37380;45.186;9.792;2024-03-07T00:44:48;24.13;;;16.38;;
51296;SDS011;37380;45.186;9.792;2024-03-07T00:47:18;20.25;;;18.15;;
51296;SDS011;37380;45.186;9.792;2024-03-07T00:49:45;26.65;;;18.27;;
51296;SDS011;37380;45.186;9.792;2024-03-07T00:52:16;19.08;;;17.10;;
51296;SDS011;37380;45.186;9.792;2024-03-07T00:54:43;19.52;;;15.32;;
51296;SDS011;37380;45.186;9.792;2024-03-07T00:57:11;21.90;;;16.02;;
51296;SDS011;37380;45.186;9.792;2024-03-07T00:59:38;21.10;;;16.25;;
51296;SDS011;37380;45.186;9.792;2024-03-07T01:02:05;25.52;;;17.33;;
51296;SDS011;37380;45.186;9.792;2024-03-07T01:04:32;23.42;;;17.13;;
51296;SDS011;37380;45.186;9.792;2024-03-07T01:07:00;34.40;;;18.38;;
51296;SDS011;37380;45.186;9.792;2024-03-07T01:09:28;19.33;;;17.00;;
51296;SDS011;37380;45.186;9.792;2024-03-07T01:11:55;20.33;;;16.23;;
51296;SDS011;37380;45.186;9.792;2024-03-07T01:14:23;24.27;;;18.30;;
51296;SDS011;37380;45.186;9.792;2024-03-07T01:16:50;26.23;;;18.33;;
51296;SDS011;37380;45.186;9.792;2024-03-07T01:19:17;17.58;;;15.73;;
51296;SDS011;37380;45.186;9.792;2024-03-07T01:21:44;19.38;;;14.93;;
51296;SDS011;37380;45.186;9.792;2024-03-07T01:24:11;16.25;;;14.65;;
51296;SDS011;37380;45.186;9.792;2024-03-07T01:26:38;29.05;;;14.20;;
51296;SDS011;37380;45.186;9.792;2024-03-07T01:29:05;16.45;;;14.45;;
51296;SDS011;37380;45.186;9.792;2024-03-07T01:31:34;16.50;;;14.55;;
51296;SDS011;37380;45.186;9.792;2024-03-07T01:34:01;25.45;;;14.73;;
51296;SDS011;37380;45.186;9.792;2024-03-07T01:36:28;15.35;;;13.75;;
51296;SDS011;37380;45.186;9.792;2024-03-07T01:38:56;20.13;;;13.85;;
51296;SDS011;37380;45.186;9.792;2024-03-07T01:41:23;16.60;;;14.85;;
51296;SDS011;37380;45.186;9.792;2024-03-07T01:43:51;18.77;;;14.02;;
51296;SDS011;37380;45.186;9.792;2024-03-07T01:46:18;16.40;;;14.75;;
51296;SDS011;37380;45.186;9.792;2024-03-07T01:48:46;15.00;;;13.60;;
51296;SDS011;37380;45.186;9.792;2024-03-07T01:51:15;15.38;;;13.05;;
51296;SDS011;37380;45.186;9.792;2024-03-07T01:53:42;22.42;;;14.50;;
51296;SDS011;37380;45.186;9.792;2024-03-07T01:56:09;15.65;;;14.07;;
51296;SDS011;37380;45.186;9.792;2024-03-07T01:58:37;28.95;;;14.30;;
51296;SDS011;37380;45.186;9.792;2024-03-07T02:01:05;14.63;;;13.10;;
51296;SDS011;37380;45.186;9.792;2024-03-07T02:03:32;15.82;;;14.40;;
51296;SDS011;37380;45.186;9.792;2024-03-07T02:05:59;20.30;;;15.90;;
51296;SDS011;37380;45.186;9.792;2024-03-07T02:08:27;17.85;;;14.23;;
51296;SDS011;37380;45.186;9.792;2024-03-07T02:10:54;24.48;;;15.20;;
51296;SDS011;37380;45.186;9.792;2024-03-07T02:13:22;25.08;;;15.23;;
51296;SDS011;37380;45.186;9.792;2024-03-07T02:15:49;19.25;;;15.38;;
51296;SDS011;37380;45.186;9.792;2024-03-07T02:18:16;17.55;;;14.85;;
51296;SDS011;37380;45.186;9.792;2024-03-07T02:20:44;16.83;;;15.25;;
51296;SDS011;37380;45.186;9.792;2024-03-07T02:23:12;16.92;;;15.23;;
51296;SDS011;37380;45.186;9.792;2024-03-07T02:25:39;22.48;;;15.73;;
51296;SDS011;37380;45.186;9.792;2024-03-07T02:28:06;18.73;;;13.85;;
51296;SDS011;37380;45.186;9.792;2024-03-07T02:30:33;25.10;;;14.90;;
51296;SDS011;37380;45.186;9.792;2024-03-07T02:33:00;14.80;;;13.45;;
51296;SDS011;37380;45.186;9.792;2024-03-07T02:35:34;16.40;;;14.52;;
51296;SDS011;37380;45.186;9.792;2024-03-07T02:38:05;18.40;;;14.27;;
51296;SDS011;37380;45.186;9.792;2024-03-07T02:40:32;15.40;;;13.98;;
51296;SDS011;37380;45.186;9.792;2024-03-07T02:42:59;14.77;;;13.20;;
51296;SDS011;37380;45.186;9.792;2024-03-07T02:45:26;16.27;;;14.63;;
51296;SDS011;37380;45.186;9.792;2024-03-07T02:47:53;15.15;;;13.65;;
51296;SDS011;37380;45.186;9.792;2024-03-07T02:50:21;19.55;;;14.65;;
51296;SDS011;37380;45.186;9.792;2024-03-07T02:52:49;17.27;;;14.50;;
51296;SDS011;37380;45.186;9.792;2024-03-07T02:55:16;17.73;;;15.90;;
51296;SDS011;37380;45.186;9.792;2024-03-07T02:57:45;19.02;;;15.15;;
51296;SDS011;37380;45.186;9.792;2024-03-07T03:00:13;16.52;;;13.55;;
51296;SDS011;37380;45.186;9.792;2024-03-07T03:02:47;18.13;;;13.73;;
51296;SDS011;37380;45.186;9.792;2024-03-07T03:05:15;17.25;;;13.73;;
51296;SDS011;37380;45.186;9.792;2024-03-07T03:07:43;14.10;;;12.93;;
51296;SDS011;37380;45.186;9.792;2024-03-07T03:10:26;17.05;;;14.15;;
51296;SDS011;37380;45.186;9.792;2024-03-07T03:12:56;18.35;;;15.15;;
51296;SDS011;37380;45.186;9.792;2024-03-07T03:15:25;20.20;;;14.98;;
51296;SDS011;37380;45.186;9.792;2024-03-07T03:17:52;20.95;;;16.42;;
51296;SDS011;37380;45.186;9.792;2024-03-07T03:30:25;19.35;;;16.42;;
51296;SDS011;37380;45.186;9.792;2024-03-07T03:32:53;20.88;;;17.05;;
51296;SDS011;37380;45.186;9.792;2024-03-07T03:35:22;21.10;;;19.20;;
51296;SDS011;37380;45.186;9.792;2024-03-07T03:37:49;23.30;;;19.52;;
51296;SDS011;37380;45.186;9.792;2024-03-07T03:40:16;24.27;;;17.80;;
51296;SDS011;37380;45.186;9.792;2024-03-07T03:42:43;19.80;;;17.67;;
51296;SDS011;37380;45.186;9.792;2024-03-07T03:45:10;31.48;;;20.20;;
51296;SDS011;37380;45.186;9.792;2024-03-07T03:47:42;25.02;;;20.73;;
51296;SDS011;37380;45.186;9.792;2024-03-07T03:50:10;18.95;;;16.85;;
51296;SDS011;37380;45.186;9.792;2024-03-07T03:52:41;17.20;;;15.38;;
51296;SDS011;37380;45.186;9.792;2024-03-07T03:55:08;24.90;;;16.35;;
51296;SDS011;37380;45.186;9.792;2024-03-07T03:57:37;20.98;;;17.95;;
51296;SDS011;37380;45.186;9.792;2024-03-07T04:00:05;17.63;;;15.90;;
51296;SDS011;37380;45.186;9.792;2024-03-07T04:05:11;26.02;;;19.83;;
51296;SDS011;37380;45.186;9.792;2024-03-07T04:07:40;25.35;;;17.85;;
51296;SDS011;37380;45.186;9.792;2024-03-07T04:10:11;20.15;;;17.92;;
51296;SDS011;37380;45.186;9.792;2024-03-07T04:12:39;21.42;;;19.40;;
51296;SDS011;37380;45.186;9.792;2024-03-07T04:15:11;17.48;;;15.60;;
51296;SDS011;37380;45.186;9.792;2024-03-07T04:17:45;23.13;;;15.85;;
51296;SDS011;37380;45.186;9.792;2024-03-07T04:20:14;19.13;;;17.35;;
51296;SDS011;37380;45.186;9.792;2024-03-07T04:22:45;17.60;;;15.85;;
51296;SDS011;37380;45.186;9.792;2024-03-07T04:25:12;19.77;;;17.75;;
51296;SDS011;37380;45.186;9.792;2024-03-07T04:27:39;21.20;;;18.02;;
51296;SDS011;37380;45.186;9.792;2024-03-07T04:30:07;26.77;;;19.38;;
51296;SDS011;37380;45.186;9.792;2024-03-07T04:32:37;18.90;;;17.00;;
51296;SDS011;37380;45.186;9.792;2024-03-07T04:35:05;24.23;;;18.70;;
51296;SDS011;37380;45.186;9.792;2024-03-07T04:37:36;18.20;;;16.40;;
51296;SDS011;37380;45.186;9.792;2024-03-07T04:40:07;20.08;;;17.95;;
51296;SDS011;37380;45.186;9.792;2024-03-07T04:42:43;21.08;;;16.52;;
51296;SDS011;37380;45.186;9.792;2024-03-07T04:45:10;19.38;;;17.60;;
51296;SDS011;37380;45.186;9.792;2024-03-07T04:47:42;25.15;;;17.52;;
51296;SDS011;37380;45.186;9.792;2024-03-07T04:50:11;19.52;;;17.38;;
51296;SDS011;37380;45.186;9.792;2024-03-07T04:52:40;20.52;;;16.08;;
51296;SDS011;37380;45.186;9.792;2024-03-07T04:55:07;17.02;;;14.88;;
51296;SDS011;37380;45.186;9.792;2024-03-07T04:57:38;16.95;;;14.77;;
51296;SDS011;37380;45.186;9.792;2024-03-07T05:00:07;20.27;;;13.35;;
51296;SDS011;37380;45.186;9.792;2024-03-07T05:02:41;15.80;;;14.02;;
51296;SDS011;37380;45.186;9.792;2024-03-07T05:05:08;12.95;;;11.63;;
51296;SDS011;37380;45.186;9.792;2024-03-07T05:07:35;13.52;;;11.93;;
51296;SDS011;37380;45.186;9.792;2024-03-07T05:10:03;15.95;;;12.00;;
51296;SDS011;37380;45.186;9.792;2024-03-07T05:12:31;13.05;;;11.88;;
51296;SDS011;37380;45.186;9.792;2024-03-07T05:14:59;19.08;;;13.90;;
51296;SDS011;37380;45.186;9.792;2024-03-07T05:17:26;13.75;;;12.40;;
51296;SDS011;37380;45.186;9.792;2024-03-07T05:19:55;16.30;;;14.57;;
51296;SDS011;37380;45.186;9.792;2024-03-07T05:22:22;24.52;;;14.93;;
51296;SDS011;37380;45.186;9.792;2024-03-07T05:24:52;17.38;;;14.57;;
51296;SDS011;37380;45.186;9.792;2024-03-07T05:27:20;20.38;;;15.18;;
51296;SDS011;37380;45.186;9.792;2024-03-07T05:29:47;18.95;;;14.57;;
51296;SDS011;37380;45.186;9.792;2024-03-07T05:32:21;15.75;;;13.93;;
51296;SDS011;37380;45.186;9.792;2024-03-07T05:34:52;16.02;;;13.00;;
51296;SDS011;37380;45.186;9.792;2024-03-07T05:37:20;17.88;;;13.18;;
51296;SDS011;37380;45.186;9.792;2024-03-07T05:39:50;21.45;;;12.32;;
51296;SDS011;37380;45.186;9.792;2024-03-07T05:42:18;17.92;;;13.68;;
51296;SDS011;37380;45.186;9.792;2024-03-07T05:44:46;18.05;;;13.50;;
51296;SDS011;37380;45.186;9.792;2024-03-07T05:47:13;22.48;;;15.40;;
51296;SDS011;37380;45.186;9.792;2024-03-07T05:49:40;28.75;;;15.07;;
51296;SDS011;37380;45.186;9.792;2024-03-07T05:52:07;15.25;;;13.60;;
51296;SDS011;37380;45.186;9.792;2024-03-07T05:54:34;14.80;;;11.95;;
51296;SDS011;37380;45.186;9.792;2024-03-07T05:57:02;10.90;;;9.05;;
51296;SDS011;37380;45.186;9.792;2024-03-07T05:59:29;12.32;;;9.25;;
51296;SDS011;37380;45.186;9.792;2024-03-07T06:01:58;12.50;;;8.88;;
51296;SDS011;37380;45.186;9.792;2024-03-07T06:04:25;10.82;;;7.85;;
51296;SDS011;37380;45.186;9.792;2024-03-07T06:06:52;14.98;;;7.13;;
51296;SDS011;37380;45.186;9.792;2024-03-07T06:09:20;12.98;;;6.63;;
51296;SDS011;37380;45.186;9.792;2024-03-07T06:11:50;9.18;;;7.60;;
51296;SDS011;37380;45.186;9.792;2024-03-07T06:14:18;13.50;;;7.72;;
51296;SDS011;37380;45.186;9.792;2024-03-07T06:16:46;9.07;;;7.03;;
51296;SDS011;37380;45.186;9.792;2024-03-07T06:19:13;14.90;;;7.68;;
51296;SDS011;37380;45.186;9.792;2024-03-07T06:21:40;8.32;;;7.03;;
51296;SDS011;37380;45.186;9.792;2024-03-07T06:24:08;8.25;;;6.80;;
51296;SDS011;37380;45.186;9.792;2024-03-07T06:26:37;9.60;;;8.60;;
51296;SDS011;37380;45.186;9.792;2024-03-07T06:29:08;9.85;;;7.93;;
51296;SDS011;37380;45.186;9.792;2024-03-07T06:31:38;8.70;;;7.80;;
51296;SDS011;37380;45.186;9.792;2024-03-07T06:34:06;9.35;;;7.47;;
51296;SDS011;37380;45.186;9.792;2024-03-07T06:36:34;14.73;;;8.65;;
51296;SDS011;37380;45.186;9.792;2024-03-07T06:39:02;7.55;;;6.38;;
51296;SDS011;37380;45.186;9.792;2024-03-07T06:41:34;13.25;;;9.60;;
51296;SDS011;37380;45.186;9.792;2024-03-07T06:44:02;12.77;;;8.93;;
51296;SDS011;37380;45.186;9.792;2024-03-07T06:46:30;13.25;;;9.10;;
51296;SDS011;37380;45.186;9.792;2024-03-07T06:48:58;7.95;;;7.22;;
51296;SDS011;37380;45.186;9.792;2024-03-07T06:51:25;14.23;;;10.60;;
51296;SDS011;37380;45.186;9.792;2024-03-07T06:53:52;10.95;;;8.63;;
51296;SDS011;37380;45.186;9.792;2024-03-07T06:56:19;10.50;;;8.55;;
51296;SDS011;37380;45.186;9.792;2024-03-07T06:58:48;11.63;;;9.80;;
51296;SDS011;37380;45.186;9.792;2024-03-07T07:01:15;14.98;;;9.63;;
51296;SDS011;37380;45.186;9.792;2024-03-07T07:03:43;19.20;;;14.75;;
51296;SDS011;37380;45.186;9.792;2024-03-07T07:06:11;20.98;;;16.73;;
51296;SDS011;37380;45.186;9.792;2024-03-07T07:08:38;23.98;;;16.55;;
51296;SDS011;37380;45.186;9.792;2024-03-07T07:11:06;22.23;;;15.85;;
51296;SDS011;37380;45.186;9.792;2024-03-07T07:13:33;19.63;;;15.60;;
51296;SDS011;37380;45.186;9.792;2024-03-07T07:16:01;19.40;;;16.25;;
51296;SDS011;37380;45.186;9.792;2024-03-07T07:18:28;19.80;;;16.10;;
51296;SDS011;37380;45.186;9.792;2024-03-07T07:20:55;15.73;;;13.63;;
51296;SDS011;37380;45.186;9.792;2024-03-07T07:23:25;17.60;;;15.80;;
51296;SDS011;37380;45.186;9.792;2024-03-07T07:25:53;18.73;;;15.55;;
51296;SDS011;37380;45.186;9.792;2024-03-07T07:28:21;15.45;;;13.85;;
51296;SDS011;37380;45.186;9.792;2024-03-07T07:30:48;16.65;;;13.60;;
51296;SDS011;37380;45.186;9.792;2024-03-07T07:33:15;14.50;;;12.75;;
51296;SDS011;37380;45.186;9.792;2024-03-07T07:35:43;21.05;;;12.40;;
51296;SDS011;37380;45.186;9.792;2024-03-07T07:38:10;12.30;;;11.10;;
51296;SDS011;37380;45.186;9.792;2024-03-07T07:40:38;19.10;;;9.98;;
51296;SDS011;37380;45.186;9.792;2024-03-07T07:43:05;15.43;;;10.20;;
51296;SDS011;37380;45.186;9.792;2024-03-07T07:45:33;11.88;;;8.57;;
51296;SDS011;37380;45.186;9.792;2024-03-07T07:48:02;9.65;;;7.63;;
51296;SDS011;37380;45.186;9.792;2024-03-07T07:50:30;13.57;;;8.48;;
51296;SDS011;37380;45.186;9.792;2024-03-07T07:52:58;8.35;;;7.55;;
51296;SDS011;37380;45.186;9.792;2024-03-07T07:55:26;10.38;;;8.25;;
51296;SDS011;37380;45.186;9.792;2024-03-07T07:57:56;9.95;;;9.00;;
51296;SDS011;37380;45.186;9.792;2024-03-07T08:00:24;9.32;;;8.10;;
51296;SDS011;37380;45.186;9.792;2024-03-07T08:05:26;11.50;;;10.30;;
51296;SDS011;37380;45.186;9.792;2024-03-07T08:07:55;22.40;;;15.23;;
51296;SDS011;37380;45.186;9.792;2024-03-07T08:10:26;32.85;;;19.38;;
51296;SDS011;37380;45.186;9.792;2024-03-07T08:12:57;16.52;;;12.38;;
51296;SDS011;37380;45.186;9.792;2024-03-07T08:15:26;21.48;;;14.57;;
51296;SDS011;37380;45.186;9.792;2024-03-07T08:17:57;22.25;;;15.48;;
51296;SDS011;37380;45.186;9.792;2024-03-07T08:20:26;20.50;;;14.90;;
51296;SDS011;37380;45.186;9.792;2024-03-07T08:22:54;14.32;;;12.65;;
51296;SDS011;37380;45.186;9.792;2024-03-07T08:25:24;18.17;;;11.25;;
51296;SDS011;37380;45.186;9.792;2024-03-07T08:27:53;11.98;;;7.88;;
51296;SDS011;37380;45.186;9.792;2024-03-07T08:30:23;13.40;;;8.50;;
51296;SDS011;37380;45.186;9.792;2024-03-07T08:32:52;10.40;;;8.13;;
51296;SDS011;37380;45.186;9.792;2024-03-07T08:35:22;13.05;;;8.90;;
51296;SDS011;37380;45.186;9.792;2024-03-07T08:37:50;11.57;;;7.15;;
51296;SDS011;37380;45.186;9.792;2024-03-07T08:40:27;9.70;;;6.72;;
51296;SDS011;37380;45.186;9.792;2024-03-07T08:42:59;9.90;;;8.43;;
51296;SDS011;37380;45.186;9.792;2024-03-07T08:45:28;11.35;;;8.73;;
51296;SDS011;37380;45.186;9.792;2024-03-07T08:47:56;8.50;;;7.63;;
51296;SDS011;37380;45.186;9.792;2024-03-07T08:50:26;15.18;;;8.68;;
51296;SDS011;37380;45.186;9.792;2024-03-07T08:52:54;12.70;;;9.13;;
51296;SDS011;37380;45.186;9.792;2024-03-07T08:55:24;12.00;;;9.48;;
51296;SDS011;37380;45.186;9.792;2024-03-07T08:57:52;10.38;;;9.27;;
51296;SDS011;37380;45.186;9.792;2024-03-07T09:00:20;12.77;;;10.55;;
51296;SDS011;37380;45.186;9.792;2024-03-07T09:02:56;13.68;;;11.15;;
51296;SDS011;37380;45.186;9.792;2024-03-07T09:05:27;16.80;;;10.35;;
51296;SDS011;37380;45.186;9.792;2024-03-07T09:07:55;18.50;;;11.27;;
51296;SDS011;37380;45.186;9.792;2024-03-07T09:10:22;13.52;;;11.07;;
51296;SDS011;37380;45.186;9.792;2024-03-07T09:12:52;13.35;;;11.10;;
51296;SDS011;37380;45.186;9.792;2024-03-07T09:15:22;13.95;;;10.90;;
51296;SDS011;37380;45.186;9.792;2024-03-07T09:17:50;15.18;;;12.15;;
51296;SDS011;37380;45.186;9.792;2024-03-07T09:20:20;16.65;;;11.27;;
51296;SDS011;37380;45.186;9.792;2024-03-07T09:22:47;14.15;;;10.63;;
51296;SDS011;37380;45.186;9.792;2024-03-07T09:25:16;14.05;;;10.88;;
51296;SDS011;37380;45.186;9.792;2024-03-07T09:27:46;13.77;;;12.45;;
51296;SDS011;37380;45.186;9.792;2024-03-07T09:30:13;20.17;;;11.38;;
51296;SDS011;37380;45.186;9.792;2024-03-07T09:32:48;10.75;;;9.05;;
51296;SDS011;37380;45.186;9.792;2024-03-07T09:35:16;20.38;;;10.23;;
51296;SDS011;37380;45.186;9.792;2024-03-07T09:37:44;12.18;;;10.88;;
51296;SDS011;37380;45.186;9.792;2024-03-07T09:40:12;15.80;;;11.25;;
51296;SDS011;37380;45.186;9.792;2024-03-07T09:42:44;16.67;;;11.27;;
51296;SDS011;37380;45.186;9.792;2024-03-07T09:45:16;11.93;;;9.77;;
51296;SDS011;37380;45.186;9.792;2024-03-07T09:47:47;17.25;;;11.18;;
51296;SDS011;37380;45.186;9.792;2024-03-07T09:50:17;12.25;;;10.93;;
51296;SDS011;37380;45.186;9.792;2024-03-07T09:52:52;12.65;;;10.68;;
51296;SDS011;37380;45.186;9.792;2024-03-07T09:55:21;14.07;;;9.43;;
51296;SDS011;37380;45.186;9.792;2024-03-07T09:57:53;17.27;;;8.93;;
51296;SDS011;37380;45.186;9.792;2024-03-07T10:00:24;12.32;;;10.70;;
51296;SDS011;37380;45.186;9.792;2024-03-07T10:03:02;20.25;;;12.60;;
51296;SDS011;37380;45.186;9.792;2024-03-07T10:05:34;11.75;;;10.52;;
51296;SDS011;37380;45.186;9.792;2024-03-07T10:08:03;13.65;;;12.15;;
51296;SDS011;37380;45.186;9.792;2024-03-07T10:10:30;18.40;;;13.40;;
51296;SDS011;37380;45.186;9.792;2024-03-07T10:12:58;19.15;;;12.52;;
51296;SDS011;37380;45.186;9.792;2024-03-07T10:15:30;14.38;;;12.48;;
51296;SDS011;37380;45.186;9.792;2024-03-07T10:18:01;16.13;;;14.43;;
51296;SDS011;37380;45.186;9.792;2024-03-07T10:20:30;16.40;;;13.57;;
51296;SDS011;37380;45.186;9.792;2024-03-07T10:22:57;16.85;;;12.95;;
51296;SDS011;37380;45.186;9.792;2024-03-07T10:25:24;15.23;;;13.70;;
51296;SDS011;37380;45.186;9.792;2024-03-07T10:27:55;16.58;;;14.73;;
51296;SDS011;37380;45.186;9.792;2024-03-07T10:30:24;15.20;;;13.70;;
51296;SDS011;37380;45.186;9.792;2024-03-07T10:32:56;15.00;;;13.32;;
51296;SDS011;37380;45.186;9.792;2024-03-07T10:35:27;23.52;;;13.90;;
51296;SDS011;37380;45.186;9.792;2024-03-07T10:37:57;16.73;;;14.18;;
51296;SDS011;37380;45.186;9.792;2024-03-07T10:40:33;13.85;;;12.55;;
51296;SDS011;37380;45.186;9.792;2024-03-07T10:43:09;15.25;;;13.80;;
51296;SDS011;37380;45.186;9.792;2024-03-07T10:45:44;26.77;;;13.25;;
51296;SDS011;37380;45.186;9.792;2024-03-07T10:48:19;17.95;;;12.70;;
51296;SDS011;37380;45.186;9.792;2024-03-07T10:50:52;16.35;;;14.55;;
51296;SDS011;37380;45.186;9.792;2024-03-07T10:56:33;14.15;;;12.55;;
51296;SDS011;37380;45.186;9.792;2024-03-07T10:59:07;17.50;;;14.27;;
51296;SDS011;37380;45.186;9.792;2024-03-07T11:04:26;17.83;;;15.17;;
51296;SDS011;37380;45.186;9.792;2024-03-07T11:06:55;17.67;;;14.18;;
51296;SDS011;37380;45.186;9.792;2024-03-07T11:09:22;18.83;;;13.95;;
51296;SDS011;37380;45.186;9.792;2024-03-07T11:11:50;19.30;;;14.18;;
51296;SDS011;37380;45.186;9.792;2024-03-07T11:14:17;15.38;;;13.25;;
51296;SDS011;37380;45.186;9.792;2024-03-07T11:16:45;19.13;;;13.98;;
51296;SDS011;37380;45.186;9.792;2024-03-07T11:19:27;21.58;;;13.63;;
51296;SDS011;37380;45.186;9.792;2024-03-07T11:24:29;12.70;;;11.52;;
51296;SDS011;37380;45.186;9.792;2024-03-07T11:27:03;16.92;;;13.88;;
51296;SDS011;37380;45.186;9.792;2024-03-07T11:29:38;15.80;;;13.35;;
51296;SDS011;37380;45.186;9.792;2024-03-07T11:32:09;16.88;;;13.25;;
51296;SDS011;37380;45.186;9.792;2024-03-07T11:34:38;23.92;;;15.55;;
51296;SDS011;37380;45.186;9.792;2024-03-07T11:37:08;24.52;;;15.63;;
51296;SDS011;37380;45.186;9.792;2024-03-07T11:39:45;18.10;;;14.02;;
51296;SDS011;37380;45.186;9.792;2024-03-07T11:42:23;21.88;;;15.65;;
51296;SDS011;37380;45.186;9.792;2024-03-07T11:44:55;16.45;;;14.77;;
51296;SDS011;37380;45.186;9.792;2024-03-07T11:47:24;17.17;;;14.57;;
51296;SDS011;37380;45.186;9.792;2024-03-07T11:49:56;25.20;;;16.48;;
51296;SDS011;37380;45.186;9.792;2024-03-07T11:52:25;19.10;;;15.93;;
51296;SDS011;37380;45.186;9.792;2024-03-07T11:54:54;23.13;;;17.50;;
51296;SDS011;37380;45.186;9.792;2024-03-07T11:57:31;26.40;;;18.63;;
51296;SDS011;37380;45.186;9.792;2024-03-07T12:00:02;21.63;;;15.80;;
51296;SDS011;37380;45.186;9.792;2024-03-07T12:02:40;22.15;;;16.13;;
51296;SDS011;37380;45.186;9.792;2024-03-07T12:05:10;18.45;;;15.40;;
51296;SDS011;37380;45.186;9.792;2024-03-07T12:07:37;19.33;;;15.13;;
51296;SDS011;37380;45.186;9.792;2024-03-07T12:10:05;21.25;;;14.68;;
51296;SDS011;37380;45.186;9.792;2024-03-07T12:12:33;16.00;;;14.25;;
51296;SDS011;37380;45.186;9.792;2024-03-07T12:15:00;19.20;;;14.15;;
51296;SDS011;37380;45.186;9.792;2024-03-07T12:17:36;18.30;;;12.15;;
51296;SDS011;37380;45.186;9.792;2024-03-07T12:20:09;19.38;;;13.50;;
51296;SDS011;37380;45.186;9.792;2024-03-07T12:22:57;14.40;;;11.93;;
51296;SDS011;37380;45.186;9.792;2024-03-07T12:25:58;11.70;;;10.50;;
51296;SDS011;37380;45.186;9.792;2024-03-07T12:28:25;15.82;;;13.15;;
51296;SDS011;37380;45.186;9.792;2024-03-07T12:30:56;13.50;;;12.02;;
51296;SDS011;37380;45.186;9.792;2024-03-07T12:33:23;14.10;;;12.55;;
51296;SDS011;37380;45.186;9.792;2024-03-07T12:35:53;29.30;;;13.63;;
51296;SDS011;37380;45.186;9.792;2024-03-07T12:38:27;22.80;;;14.65;;
51296;SDS011;37380;45.186;9.792;2024-03-07T12:41:03;17.80;;;12.70;;
51296;SDS011;37380;45.186;9.792;2024-03-07T12:43:32;16.17;;;13.40;;
51296;SDS011;37380;45.186;9.792;2024-03-07T12:45:59;14.18;;;12.77;;
51296;SDS011;37380;45.186;9.792;2024-03-07T12:48:28;16.42;;;12.50;;
51296;SDS011;37380;45.186;9.792;2024-03-07T12:50:56;19.05;;;13.18;;
51296;SDS011;37380;45.186;9.792;2024-03-07T12:53:23;19.02;;;16.13;;
51296;SDS011;37380;45.186;9.792;2024-03-07T12:55:56;17.63;;;14.38;;
51296;SDS011;37380;45.186;9.792;2024-03-07T12:58:23;20.10;;;14.05;;
51296;SDS011;37380;45.186;9.792;2024-03-07T13:00:53;17.25;;;14.68;;
51296;SDS011;37380;45.186;9.792;2024-03-07T13:03:25;16.73;;;14.82;;
51296;SDS011;37380;45.186;9.792;2024-03-07T13:05:58;19.90;;;13.98;;
51296;SDS011;37380;45.186;9.792;2024-03-07T13:08:29;20.10;;;14.30;;
51296;SDS011;37380;45.186;9.792;2024-03-07T13:10:57;16.65;;;13.93;;
51296;SDS011;37380;45.186;9.792;2024-03-07T13:13:27;24.33;;;16.10;;
51296;SDS011;37380;45.186;9.792;2024-03-07T13:15:54;22.48;;;14.90;;
51296;SDS011;37380;45.186;9.792;2024-03-07T13:18:23;15.55;;;13.55;;
51296;SDS011;37380;45.186;9.792;2024-03-07T13:20:51;25.60;;;16.33;;
51296;SDS011;37380;45.186;9.792;2024-03-07T13:23:19;26.98;;;16.17;;
51296;SDS011;37380;45.186;9.792;2024-03-07T13:25:46;22.98;;;15.82;;
51296;SDS011;37380;45.186;9.792;2024-03-07T13:28:15;27.67;;;16.00;;
51296;SDS011;37380;45.186;9.792;2024-03-07T13:30:51;19.55;;;15.43;;
51296;SDS011;37380;45.186;9.792;2024-03-07T13:33:22;24.45;;;15.60;;
51296;SDS011;37380;45.186;9.792;2024-03-07T13:35:52;18.90;;;15.40;;
51296;SDS011;37380;45.186;9.792;2024-03-07T13:38:20;22.58;;;15.00;;
51296;SDS011;37380;45.186;9.792;2024-03-07T13:40:47;24.92;;;15.57;;
51296;SDS011;37380;45.186;9.792;2024-03-07T13:43:16;19.40;;;15.63;;
51296;SDS011;37380;45.186;9.792;2024-03-07T13:45:45;19.98;;;13.88;;
51296;SDS011;37380;45.186;9.792;2024-03-07T13:48:15;16.35;;;14.60;;
51296;SDS011;37380;45.186;9.792;2024-03-07T13:50:45;21.23;;;14.30;;
51296;SDS011;37380;45.186;9.792;2024-03-07T13:53:24;22.00;;;15.10;;
51296;SDS011;37380;45.186;9.792;2024-03-07T14:16:16;18.50;;;11.75;;
51296;SDS011;37380;45.186;9.792;2024-03-07T14:32:56;20.55;;;11.88;;
51296;SDS011;37380;45.186;9.792;2024-03-07T14:35:32;16.05;;;12.38;;
51296;SDS011;37380;45.186;9.792;2024-03-07T14:38:22;23.55;;;13.93;;
51296;SDS011;37380;45.186;9.792;2024-03-07T14:40:50;15.75;;;12.77;;
51296;SDS011;37380;45.186;9.792;2024-03-07T14:43:19;24.60;;;13.30;;
51296;SDS011;37380;45.186;9.792;2024-03-07T14:45:47;16.88;;;12.60;;
51296;SDS011;37380;45.186;9.792;2024-03-07T14:48:16;23.75;;;13.20;;
51296;SDS011;37380;45.186;9.792;2024-03-07T14:50:46;18.98;;;11.68;;
51296;SDS011;37380;45.186;9.792;2024-03-07T14:53:14;13.32;;;10.98;;
51296;SDS011;37380;45.186;9.792;2024-03-07T14:55:46;19.00;;;12.38;;
51296;SDS011;37380;45.186;9.792;2024-03-07T14:58:13;20.08;;;14.73;;
51296;SDS011;37380;45.186;9.792;2024-03-07T15:00:43;13.55;;;10.48;;
51296;SDS011;37380;45.186;9.792;2024-03-07T15:03:22;11.88;;;10.05;;
51296;SDS011;37380;45.186;9.792;2024-03-07T15:05:51;10.63;;;9.00;;
51296;SDS011;37380;45.186;9.792;2024-03-07T15:08:19;11.25;;;9.52;;
51296;SDS011;37380;45.186;9.792;2024-03-07T15:10:57;20.50;;;10.60;;
51296;SDS011;37380;45.186;9.792;2024-03-07T15:13:40;21.05;;;11.48;;
51296;SDS011;37380;45.186;9.792;2024-03-07T15:16:07;21.73;;;13.02;;
51296;SDS011;37380;45.186;9.792;2024-03-07T15:18:40;17.55;;;13.55;;
51296;SDS011;37380;45.186;9.792;2024-03-07T15:21:10;20.73;;;12.18;;
51296;SDS011;37380;45.186;9.792;2024-03-07T15:23:45;11.73;;;9.10;;
51296;SDS011;37380;45.186;9.792;2024-03-07T15:26:13;19.75;;;10.07;;
51296;SDS011;37380;45.186;9.792;2024-03-07T15:28:42;14.27;;;9.48;;
51296;SDS011;37380;45.186;9.792;2024-03-07T15:31:09;19.45;;;12.27;;
51296;SDS011;37380;45.186;9.792;2024-03-07T15:33:40;13.63;;;10.45;;